Attica Junction, Ohio
Current Conditions -  °F | °C
As of 3:52 PM on Friday 31 Oct 2014 (Local Time) from KMFD Reporting Station
Light Rain Light Rain  
Wind Chill: 40°   Ceiling: 1500
Heat Index: 43°   Visibility: 7mi
Dew Point: 40°   Wind: 5mph
Humidity: 89%   Direction: 280°W
Pressure: 29.84"   Gusts: NA
Location:  41.0654°N, 82.876°W
Report Text: KMFD 311952Z 28004KT 7SM -RA BKN015 OVC050 06/04 A2984 RMK AO2 RAE12B49 SLP109 P0001 T00610044
Loading
Personal Weather Stations






























Interactive Weather Map
Tropical Storm Tracking
New forecast layout! Learn more

10-Day Weather Forecast

Advertisements
Track Severe Weather on mobile